createdAt,value
2019-05-10T17:01:00.867Z,1.65
2019-05-10T17:03:30.445Z,1.47
2019-05-10T17:06:04.079Z,1.70
2019-05-10T17:08:36.748Z,1.65
2019-05-10T17:11:09.434Z,1.50
2019-05-10T17:13:36.480Z,1.70
2019-05-10T17:16:17.102Z,1.63
2019-05-10T17:18:43.237Z,1.67
2019-05-10T17:21:12.557Z,1.82
2019-05-10T17:23:46.791Z,1.57
2019-05-10T17:26:13.174Z,1.47
2019-05-10T17:28:43.848Z,1.80
2019-05-10T17:31:13.460Z,1.45
2019-05-10T17:36:14.554Z,6.93
2019-05-10T17:38:47.515Z,6.58
2019-05-10T17:41:19.397Z,7.83
2019-05-10T17:43:48.579Z,5.85
2019-05-10T17:46:18.758Z,3.42
2019-05-10T17:48:49.607Z,2.83
2019-05-10T17:51:20.559Z,2.30
2019-05-10T17:53:55.117Z,2.22
2019-05-10T17:56:21.177Z,1.72
2019-05-10T17:58:50.553Z,1.40
2019-05-10T18:01:20.357Z,1.87
2019-05-10T18:03:50.032Z,1.65
2019-05-10T18:06:24.189Z,1.95
2019-05-10T18:08:50.358Z,1.50
2019-05-10T18:11:20.079Z,1.92
2019-05-10T18:13:49.512Z,1.85
2019-05-10T18:16:19.332Z,1.95
2019-05-10T18:18:48.655Z,1.85
2019-05-10T18:21:22.162Z,1.70
2019-05-10T18:23:52.819Z,1.92
2019-05-10T18:26:20.635Z,1.42
2019-05-10T18:28:50.310Z,1.50
2019-05-10T18:31:19.615Z,1.60
2019-05-10T18:33:54.576Z,1.60
2019-05-10T18:36:26.734Z,1.47
2019-05-10T18:38:52.909Z,1.62
2019-05-10T18:41:23.143Z,1.35
2019-05-10T18:43:52.776Z,1.37
2019-05-10T18:46:24.568Z,1.20
2019-05-10T18:48:53.119Z,1.80
2019-05-10T18:51:24.302Z,1.42
2019-05-10T18:53:53.439Z,1.62
2019-05-10T18:56:25.190Z,1.62
2019-05-10T18:58:54.078Z,1.30
2019-05-10T19:01:23.719Z,1.35
2019-05-10T19:03:53.319Z,1.40
2019-05-10T19:06:22.634Z,1.17
2019-05-10T19:08:52.331Z,1.22
2019-05-10T19:11:21.737Z,1.80
2019-05-10T19:13:53.987Z,1.57
2019-05-10T19:16:26.137Z,1.30
2019-05-10T19:18:56.075Z,1.35
2019-05-10T19:21:30.521Z,1.30
2019-05-10T19:23:56.429Z,1.05
2019-05-10T19:26:29.677Z,1.35
2019-05-10T19:28:59.053Z,1.77
2019-05-10T19:31:31.560Z,1.40
2019-05-10T19:33:59.688Z,1.15
2019-05-10T19:36:28.986Z,1.30
2019-05-10T19:38:58.383Z,1.40
2019-05-10T19:41:28.000Z,1.25
2019-05-10T19:44:02.313Z,1.42
2019-05-10T19:46:30.099Z,1.10
2019-05-10T19:48:59.777Z,1.20
2019-05-10T19:51:29.691Z,1.60
2019-05-10T19:53:59.420Z,1.47
2019-05-10T19:56:30.045Z,1.22
2019-05-10T19:59:05.584Z,1.37
2019-05-10T20:01:31.054Z,1.30
2019-05-10T20:04:00.704Z,1.35
2019-05-10T20:06:30.316Z,1.25
2019-05-10T20:08:59.696Z,1.30
2019-05-10T20:11:30.292Z,1.47
2019-05-10T20:13:59.718Z,1.52
2019-05-10T20:16:29.368Z,1.70
2019-05-10T20:18:58.972Z,1.27
2019-05-10T20:21:28.577Z,1.50
2019-05-10T20:23:58.947Z,1.17
2019-05-10T20:26:28.522Z,1.60
2019-05-10T20:28:58.126Z,1.60
2019-05-10T20:31:30.431Z,1.72
2019-05-10T20:33:58.432Z,1.80
2019-05-10T20:36:29.092Z,1.22
2019-05-10T20:39:00.879Z,1.90
2019-05-10T20:41:30.252Z,1.80
2019-05-10T20:43:59.599Z,1.42
2019-05-10T20:46:29.204Z,1.77
2019-05-10T20:48:58.510Z,1.35
2019-05-10T20:51:28.086Z,1.60
2019-05-10T20:53:57.407Z,1.50
2019-05-10T20:56:26.715Z,1.85
2019-05-10T20:58:56.291Z,1.40
2019-05-10T21:01:25.666Z,1.60
2019-05-10T21:03:54.972Z,1.42
2019-05-10T21:06:24.282Z,1.35
2019-05-10T21:08:53.583Z,1.90
2019-05-10T21:11:22.898Z,1.37
2019-05-10T21:13:52.195Z,1.60
2019-05-10T21:16:21.505Z,1.42
2019-05-10T21:18:51.874Z,1.52
2019-05-10T21:21:21.422Z,1.67
2019-05-10T21:23:51.024Z,1.40
2019-05-10T21:26:20.353Z,1.30
2019-05-10T21:28:49.943Z,2.00
2019-05-10T21:31:19.543Z,1.32
2019-05-10T21:33:49.155Z,1.25
2019-05-10T21:36:18.534Z,1.40
2019-05-10T21:38:47.979Z,1.40
2019-05-10T21:41:17.785Z,1.60
2019-05-10T21:43:47.154Z,1.50
2019-05-10T21:46:16.461Z,1.20
2019-05-10T21:48:45.774Z,1.50
2019-05-10T21:51:15.389Z,1.25
2019-05-10T21:53:45.012Z,1.40
2019-05-10T21:56:14.318Z,1.40
2019-05-10T21:58:43.923Z,1.47
2019-05-10T22:01:13.751Z,1.50
2019-05-10T22:03:43.061Z,1.55
2019-05-10T22:06:12.480Z,1.70
2019-05-10T22:08:49.540Z,1.40
2019-05-10T22:11:13.480Z,1.77
2019-05-10T22:13:42.789Z,1.20
2019-05-10T22:16:12.091Z,1.27
2019-05-10T22:18:41.658Z,1.30
2019-05-10T22:21:10.962Z,1.10
2019-05-10T22:23:40.595Z,0.98
2019-05-10T22:26:09.915Z,0.93
2019-05-10T22:28:39.219Z,1.17
2019-05-10T22:31:08.597Z,0.90
2019-05-10T22:33:37.914Z,1.40
2019-05-10T22:36:08.289Z,0.88
2019-05-10T22:38:38.666Z,1.20
2019-05-10T22:41:07.980Z,1.02
2019-05-10T22:43:37.299Z,0.78
2019-05-10T22:46:06.869Z,1.10
2019-05-10T22:48:36.187Z,0.95
2019-05-10T22:51:05.800Z,1.00
2019-05-10T22:53:35.118Z,0.82
2019-05-10T22:56:04.503Z,0.93
2019-05-10T22:58:34.089Z,1.00
2019-05-10T23:01:03.698Z,1.15
2019-05-10T23:03:33.085Z,0.88
2019-05-10T23:06:02.708Z,0.90
2019-05-10T23:08:32.315Z,0.65
2019-05-10T23:11:01.803Z,0.68
2019-05-10T23:13:31.538Z,0.60
2019-05-10T23:16:01.256Z,0.78
2019-05-10T23:18:30.735Z,0.60
2019-05-10T23:21:00.356Z,0.68
2019-05-10T23:23:29.683Z,0.72
2019-05-10T23:25:59.273Z,0.50
2019-05-10T23:28:28.671Z,0.60
2019-05-10T23:30:58.275Z,0.70
2019-05-10T23:33:27.599Z,0.50
2019-05-10T23:35:57.185Z,0.60
2019-05-10T23:38:26.794Z,0.60
2019-05-10T23:40:56.157Z,0.68
2019-05-10T23:43:25.470Z,0.80
2019-05-10T23:45:55.062Z,0.50
2019-05-10T23:48:24.363Z,0.40
2019-05-10T23:50:53.679Z,0.37
2019-05-10T23:53:22.975Z,0.60
2019-05-10T23:55:52.331Z,0.45
2019-05-10T23:58:21.635Z,0.60
